createdAt,value
2023-05-14T00:00:00.575Z,6.32
2023-05-14T00:00:31.983Z,8.43
2023-05-14T00:01:03.401Z,8.13
2023-05-14T00:01:35.395Z,8.68
2023-05-14T00:02:06.793Z,7.53
2023-05-14T00:02:38.389Z,6.88
2023-05-14T00:03:10.011Z,7.80
2023-05-14T00:03:41.582Z,10.30
2023-05-14T00:04:13.054Z,8.20
2023-05-14T00:04:44.491Z,7.28
2023-05-14T00:05:15.866Z,9.00
2023-05-14T00:05:48.161Z,8.55
2023-05-14T00:06:19.504Z,7.60
2023-05-14T00:06:50.865Z,7.75
2023-05-14T00:07:22.272Z,8.27
2023-05-14T00:07:53.751Z,7.13
2023-05-14T00:08:25.138Z,6.97
2023-05-14T00:08:56.503Z,8.30
2023-05-14T00:09:27.872Z,7.53
2023-05-14T00:09:59.490Z,8.63
2023-05-14T00:10:30.845Z,10.87
2023-05-14T00:11:02.458Z,7.32
2023-05-14T00:11:33.833Z,13.48
2023-05-14T00:12:05.494Z,8.80
2023-05-14T00:12:36.869Z,7.05
2023-05-14T00:13:08.234Z,10.15
2023-05-14T00:13:39.610Z,7.55
2023-05-14T00:14:10.979Z,7.47
2023-05-14T00:14:42.314Z,6.97
2023-05-14T00:15:13.670Z,7.05
2023-05-14T00:15:45.060Z,6.22
2023-05-14T00:16:16.590Z,6.22
2023-05-14T00:16:48.010Z,8.27
2023-05-14T00:17:19.562Z,9.23
2023-05-14T00:17:50.999Z,8.07
2023-05-14T00:18:22.425Z,6.03
2023-05-14T00:18:53.899Z,7.20
2023-05-14T00:19:25.694Z,8.95
2023-05-14T00:19:57.042Z,8.23
2023-05-14T00:20:28.382Z,6.75
2023-05-14T00:20:59.750Z,7.97
2023-05-14T00:21:31.148Z,6.38
2023-05-14T00:22:02.508Z,9.07
2023-05-14T00:22:34.203Z,6.20
2023-05-14T00:23:05.564Z,8.02
2023-05-14T00:23:36.939Z,9.38
2023-05-14T00:24:08.362Z,7.15
2023-05-14T00:24:39.805Z,6.60
2023-05-14T00:25:11.143Z,7.30
2023-05-14T00:25:42.555Z,8.52
2023-05-14T00:26:13.937Z,8.68
2023-05-14T00:26:45.314Z,5.90
2023-05-14T00:27:16.669Z,7.80
2023-05-14T00:27:48.022Z,7.05
2023-05-14T00:28:19.381Z,6.40
2023-05-14T00:28:50.748Z,9.65
2023-05-14T00:29:22.118Z,8.68
2023-05-14T00:29:53.464Z,7.65
2023-05-14T00:30:25.045Z,8.98
2023-05-14T00:30:56.636Z,7.70
2023-05-14T00:31:28.116Z,6.45
2023-05-14T00:31:59.512Z,7.90
2023-05-14T00:32:30.950Z,8.93
2023-05-14T00:33:02.378Z,11.50
2023-05-14T00:33:33.761Z,6.55
2023-05-14T00:34:05.082Z,8.15
2023-05-14T00:34:36.434Z,5.80
2023-05-14T00:35:08.004Z,7.57
2023-05-14T00:35:39.396Z,8.10
2023-05-14T00:36:10.773Z,7.70
2023-05-14T00:36:42.120Z,8.40
2023-05-14T00:37:13.497Z,7.63
2023-05-14T00:37:44.852Z,6.47
2023-05-14T00:38:16.214Z,9.43
2023-05-14T00:38:47.560Z,7.65
2023-05-14T00:39:18.912Z,8.75
2023-05-14T00:39:50.273Z,10.35
2023-05-14T00:40:25.515Z,9.07
2023-05-14T00:40:57.024Z,5.50
2023-05-14T00:41:28.438Z,7.15
2023-05-14T00:41:59.821Z,10.57
2023-05-14T00:42:31.347Z,8.65
2023-05-14T00:43:02.803Z,8.38
2023-05-14T00:43:34.165Z,8.63
2023-05-14T00:44:05.711Z,9.13
2023-05-14T00:44:37.055Z,8.77
2023-05-14T00:45:08.610Z,6.78
2023-05-14T00:45:40.001Z,7.72
2023-05-14T00:46:11.507Z,10.00
2023-05-14T00:46:42.892Z,8.10
2023-05-14T00:47:14.361Z,9.35
2023-05-14T00:47:45.798Z,9.30
2023-05-14T00:48:17.166Z,8.52
2023-05-14T00:48:48.533Z,12.05
2023-05-14T00:49:20.084Z,7.45
2023-05-14T00:49:51.467Z,7.93
2023-05-14T00:50:23.342Z,8.25
2023-05-14T00:50:54.963Z,8.90
2023-05-14T00:51:26.483Z,7.80
2023-05-14T00:51:57.999Z,9.32
2023-05-14T00:52:29.455Z,9.20
2023-05-14T00:53:01.002Z,9.93
2023-05-14T00:53:32.359Z,8.60
2023-05-14T00:54:03.835Z,9.32
2023-05-14T00:54:35.459Z,9.25
2023-05-14T00:55:07.188Z,8.52
2023-05-14T00:55:39.040Z,8.50
2023-05-14T00:56:10.442Z,9.65
2023-05-14T00:56:42.882Z,8.98
2023-05-14T00:57:14.278Z,7.07
2023-05-14T00:57:45.719Z,9.77
2023-05-14T00:58:17.778Z,10.35
2023-05-14T00:58:49.086Z,7.50
2023-05-14T00:59:20.467Z,7.28
2023-05-14T00:59:51.838Z,9.38
2023-05-14T01:00:23.638Z,8.85
2023-05-14T01:00:55.397Z,7.85
2023-05-14T01:01:26.879Z,8.80
2023-05-14T01:01:58.318Z,8.68
2023-05-14T01:02:29.803Z,8.32
2023-05-14T01:03:01.309Z,6.78
2023-05-14T01:03:33.170Z,8.18
2023-05-14T01:04:05.881Z,7.93
2023-05-14T01:04:37.978Z,8.63
2023-05-14T01:05:09.547Z,7.03
2023-05-14T01:05:40.873Z,10.75
2023-05-14T01:06:27.345Z,11.40
2023-05-14T01:07:04.555Z,9.13
2023-05-14T01:07:35.886Z,5.82
2023-05-14T01:08:18.126Z,7.50
2023-05-14T01:09:05.705Z,7.97
2023-05-14T01:09:39.822Z,7.60
2023-05-14T01:10:49.725Z,9.45
2023-05-14T01:11:32.409Z,10.87
2023-05-14T01:12:06.466Z,12.70
2023-05-14T01:12:42.248Z,9.00
2023-05-14T01:13:17.248Z,7.03
2023-05-14T01:13:48.591Z,7.88
2023-05-14T01:14:49.114Z,8.70
2023-05-14T01:15:28.680Z,7.80
2023-05-14T01:16:00.585Z,8.02
2023-05-14T01:16:33.357Z,9.27
2023-05-14T01:17:04.949Z,6.88
2023-05-14T01:17:39.235Z,8.05
2023-05-14T01:18:11.603Z,10.18
2023-05-14T01:18:43.699Z,7.10
2023-05-14T01:19:23.224Z,8.90
2023-05-14T01:19:55.095Z,7.80
2023-05-14T01:20:26.787Z,8.20
2023-05-14T01:20:58.217Z,7.65
2023-05-14T01:21:39.245Z,8.20
2023-05-14T01:22:11.290Z,10.10
2023-05-14T01:22:42.628Z,9.40
2023-05-14T01:23:14.015Z,8.00
2023-05-14T01:23:45.347Z,7.60
2023-05-14T01:24:16.707Z,8.13
2023-05-14T01:24:48.064Z,9.48
2023-05-14T01:25:19.476Z,8.00
2023-05-14T01:25:50.812Z,8.85
2023-05-14T01:26:22.150Z,9.02
2023-05-14T01:26:54.804Z,8.15
2023-05-14T01:27:26.131Z,8.85
2023-05-14T01:28:15.896Z,8.80
2023-05-14T01:28:48.551Z,8.25
2023-05-14T01:29:21.996Z,8.25
2023-05-14T01:29:58.937Z,11.63
2023-05-14T01:30:37.090Z,6.85
2023-05-14T01:31:12.058Z,6.85
2023-05-14T01:31:45.501Z,9.45
2023-05-14T01:32:17.521Z,8.85
2023-05-14T01:32:51.618Z,9.68
2023-05-14T01:33:24.852Z,11.05
2023-05-14T01:33:57.253Z,8.82
2023-05-14T01:34:29.982Z,8.98
2023-05-14T01:35:01.726Z,9.57
2023-05-14T01:35:33.270Z,10.27
2023-05-14T01:36:04.868Z,9.10
2023-05-14T01:36:36.204Z,10.45
2023-05-14T01:37:08.420Z,9.68
2023-05-14T01:37:39.994Z,12.32
2023-05-14T01:38:12.320Z,10.07
2023-05-14T01:38:44.062Z,11.90
2023-05-14T01:39:15.805Z,8.57
2023-05-14T01:39:47.413Z,11.43
2023-05-14T01:40:18.976Z,9.40
2023-05-14T01:40:50.467Z,9.70
2023-05-14T01:41:22.232Z,9.20
2023-05-14T01:41:54.139Z,11.27
2023-05-14T01:42:26.063Z,10.13
2023-05-14T01:42:57.447Z,9.52
2023-05-14T01:43:29.707Z,8.77
2023-05-14T01:44:01.091Z,8.63
2023-05-14T01:44:33.013Z,8.90
2023-05-14T01:45:05.129Z,9.05
2023-05-14T01:45:36.981Z,10.23
2023-05-14T01:46:08.448Z,8.35
2023-05-14T01:46:39.952Z,9.00
2023-05-14T01:47:11.323Z,10.57
2023-05-14T01:47:42.714Z,7.70
2023-05-14T01:48:14.647Z,8.90
2023-05-14T01:48:46.007Z,8.35
2023-05-14T01:49:17.394Z,10.38
2023-05-14T01:49:48.731Z,9.23
2023-05-14T01:50:20.064Z,8.43
2023-05-14T01:50:51.444Z,10.52
2023-05-14T01:51:22.789Z,10.45
2023-05-14T01:51:54.137Z,8.93
2023-05-14T01:52:25.513Z,7.72
2023-05-14T01:52:57.014Z,8.68
2023-05-14T01:53:28.442Z,11.18
2023-05-14T01:53:59.799Z,8.93
2023-05-14T01:54:31.189Z,11.35
2023-05-14T01:55:02.539Z,9.35
2023-05-14T01:55:33.910Z,11.65
2023-05-14T01:56:05.474Z,10.70
2023-05-14T01:56:36.846Z,11.27
2023-05-14T01:57:08.243Z,8.80
2023-05-14T01:57:39.788Z,7.93
2023-05-14T01:58:11.153Z,11.10
2023-05-14T01:58:42.551Z,8.65
2023-05-14T01:59:13.889Z,7.90
2023-05-14T01:59:45.232Z,9.53
2023-05-14T02:00:16.676Z,7.40
2023-05-14T02:00:48.046Z,10.50
2023-05-14T02:01:19.460Z,9.48
2023-05-14T02:01:50.950Z,10.95
2023-05-14T02:02:22.370Z,7.70
2023-05-14T02:02:53.772Z,8.55
2023-05-14T02:03:25.152Z,10.30
2023-05-14T02:03:56.523Z,9.07
2023-05-14T02:04:27.997Z,9.45
2023-05-14T02:04:59.391Z,11.07
2023-05-14T02:05:30.804Z,8.02
2023-05-14T02:06:02.172Z,10.77
2023-05-14T02:06:33.552Z,9.48
2023-05-14T02:07:05.039Z,10.25
2023-05-14T02:07:36.410Z,12.02
2023-05-14T02:08:07.754Z,9.27
2023-05-14T02:08:39.142Z,11.38
2023-05-14T02:09:10.505Z,11.90
2023-05-14T02:09:41.844Z,10.50
2023-05-14T02:10:13.326Z,9.40
2023-05-14T02:10:44.637Z,9.88
2023-05-14T02:11:16.026Z,8.32
2023-05-14T02:11:47.443Z,10.43
2023-05-14T02:12:18.819Z,7.70
2023-05-14T02:12:50.262Z,8.35
2023-05-14T02:13:21.624Z,11.40
2023-05-14T02:13:52.975Z,10.88
2023-05-14T02:14:24.365Z,11.40
2023-05-14T02:14:55.787Z,7.85
2023-05-14T02:15:27.134Z,10.63
2023-05-14T02:15:58.608Z,11.35
2023-05-14T02:16:30.070Z,11.30
2023-05-14T02:17:01.495Z,10.77
2023-05-14T02:17:32.978Z,8.13
2023-05-14T02:18:04.529Z,10.98
2023-05-14T02:18:35.993Z,8.73
2023-05-14T02:19:07.518Z,10.75
2023-05-14T02:19:38.928Z,9.73
2023-05-14T02:20:10.552Z,8.98
2023-05-14T02:20:41.922Z,8.75
2023-05-14T02:21:13.250Z,7.22
2023-05-14T02:21:44.594Z,10.68
2023-05-14T02:22:15.968Z,9.13
2023-05-14T02:22:47.347Z,8.25
2023-05-14T02:23:19.507Z,9.90
2023-05-14T02:23:51.947Z,11.60
2023-05-14T02:24:23.282Z,9.02
2023-05-14T02:24:54.622Z,7.78
2023-05-14T02:25:25.988Z,9.18
2023-05-14T02:25:57.367Z,8.90
2023-05-14T02:26:28.755Z,9.13
2023-05-14T02:27:00.481Z,8.75
2023-05-14T02:27:31.848Z,8.48
2023-05-14T02:28:03.212Z,11.40
2023-05-14T02:28:34.593Z,7.65
2023-05-14T02:29:05.953Z,9.35
2023-05-14T02:29:37.309Z,9.35
2023-05-14T02:30:09.027Z,8.50
2023-05-14T02:30:40.902Z,8.15
2023-05-14T02:31:12.263Z,11.25
2023-05-14T02:31:43.721Z,8.55
2023-05-14T02:32:15.180Z,9.20
2023-05-14T02:32:46.729Z,7.07
2023-05-14T02:33:18.188Z,13.05
2023-05-14T02:33:49.611Z,10.30
2023-05-14T02:34:20.987Z,8.17
2023-05-14T02:34:52.352Z,11.13
2023-05-14T02:35:23.713Z,11.00
2023-05-14T02:35:55.042Z,9.30
2023-05-14T02:36:26.395Z,11.75
2023-05-14T02:36:57.762Z,8.13
2023-05-14T02:37:29.175Z,8.20
2023-05-14T02:38:00.558Z,7.18
2023-05-14T02:38:31.922Z,10.52
2023-05-14T02:39:03.315Z,11.38
2023-05-14T02:39:34.692Z,9.52
2023-05-14T02:40:06.446Z,11.27
2023-05-14T02:40:37.806Z,12.18
2023-05-14T02:41:09.166Z,11.45
2023-05-14T02:41:40.517Z,10.05
2023-05-14T02:42:11.885Z,9.55
2023-05-14T02:42:43.268Z,10.18
2023-05-14T02:43:14.637Z,8.65
2023-05-14T02:43:45.963Z,10.00
2023-05-14T02:44:17.448Z,11.63
2023-05-14T02:44:48.815Z,9.25
2023-05-14T02:45:20.154Z,11.05
2023-05-14T02:45:51.491Z,12.60
2023-05-14T02:46:22.903Z,9.95
2023-05-14T02:46:54.316Z,10.15
2023-05-14T02:47:25.945Z,10.05
2023-05-14T02:47:57.359Z,11.30
2023-05-14T02:48:29.085Z,10.05
2023-05-14T02:49:00.464Z,9.93
2023-05-14T02:49:31.859Z,10.32
2023-05-14T02:50:03.311Z,8.38
2023-05-14T02:50:34.662Z,10.00
2023-05-14T02:51:06.021Z,10.05
2023-05-14T02:51:37.379Z,11.45
2023-05-14T02:52:08.751Z,10.73
2023-05-14T02:52:40.136Z,10.93
2023-05-14T02:53:11.491Z,12.53
2023-05-14T02:53:42.904Z,8.75
2023-05-14T02:54:14.246Z,11.25
2023-05-14T02:54:45.612Z,10.85
2023-05-14T02:55:17.085Z,8.98
2023-05-14T02:55:48.453Z,11.90
2023-05-14T02:56:19.813Z,9.87
2023-05-14T02:56:51.198Z,11.45
2023-05-14T02:57:22.554Z,11.63
2023-05-14T02:57:53.919Z,10.88
2023-05-14T02:58:27.733Z,9.77
2023-05-14T02:59:00.408Z,11.07
2023-05-14T02:59:32.170Z,8.20
2023-05-14T03:00:04.274Z,11.85
2023-05-14T03:00:36.260Z,9.25
2023-05-14T03:01:08.272Z,11.75
2023-05-14T03:01:39.696Z,10.48
2023-05-14T03:02:11.507Z,8.35
2023-05-14T03:02:43.682Z,7.78
2023-05-14T03:03:15.485Z,12.77
2023-05-14T03:03:47.338Z,9.73
2023-05-14T03:04:19.282Z,12.52
2023-05-14T03:04:50.603Z,9.25
2023-05-14T03:05:22.010Z,9.43
2023-05-14T03:05:53.441Z,10.13
2023-05-14T03:06:24.785Z,9.55
2023-05-14T03:06:56.135Z,7.57
2023-05-14T03:07:27.515Z,10.50
2023-05-14T03:07:58.878Z,11.65
2023-05-14T03:08:30.220Z,11.50
2023-05-14T03:09:01.586Z,8.55
2023-05-14T03:09:32.924Z,10.75
2023-05-14T03:10:04.454Z,9.90
2023-05-14T03:10:35.785Z,8.52
2023-05-14T03:11:07.157Z,12.98
2023-05-14T03:11:38.515Z,8.70
2023-05-14T03:12:09.880Z,10.50
2023-05-14T03:12:41.292Z,7.55
2023-05-14T03:13:12.648Z,14.77
2023-05-14T03:13:44.006Z,8.43
2023-05-14T03:14:15.401Z,11.10
2023-05-14T03:14:46.788Z,9.80
2023-05-14T03:15:18.186Z,7.95
2023-05-14T03:15:49.538Z,11.13
2023-05-14T03:16:20.953Z,9.98
2023-05-14T03:16:52.461Z,10.60
2023-05-14T03:17:23.956Z,10.13
2023-05-14T03:17:55.418Z,9.20
2023-05-14T03:18:26.844Z,9.50
2023-05-14T03:18:58.334Z,9.02
2023-05-14T03:19:29.713Z,8.55
2023-05-14T03:20:01.123Z,12.65
2023-05-14T03:20:32.483Z,11.43
2023-05-14T03:21:03.971Z,10.98
2023-05-14T03:21:35.401Z,9.95
2023-05-14T03:22:06.783Z,8.60
2023-05-14T03:22:38.151Z,11.30
2023-05-14T03:23:09.511Z,9.50
2023-05-14T03:23:40.875Z,10.10
2023-05-14T03:24:12.209Z,8.00
2023-05-14T03:24:43.585Z,8.32
2023-05-14T03:25:14.968Z,9.18
2023-05-14T03:25:46.324Z,10.23
2023-05-14T03:26:17.647Z,9.13
2023-05-14T03:26:49.004Z,9.33
2023-05-14T03:27:20.392Z,10.35
2023-05-14T03:27:51.793Z,9.48
2023-05-14T03:28:23.183Z,7.75
2023-05-14T03:28:54.614Z,11.07
2023-05-14T03:29:25.956Z,9.88
2023-05-14T03:29:57.285Z,12.68
2023-05-14T03:30:28.697Z,8.70
2023-05-14T03:31:00.184Z,9.50
2023-05-14T03:31:31.596Z,8.98
2023-05-14T03:32:03.030Z,9.90
2023-05-14T03:32:34.415Z,8.27
2023-05-14T03:33:05.936Z,10.75
2023-05-14T03:33:37.334Z,10.35
2023-05-14T03:34:08.735Z,11.18
2023-05-14T03:34:40.171Z,11.50
2023-05-14T03:35:11.534Z,12.18
2023-05-14T03:35:42.939Z,9.30
2023-05-14T03:36:14.293Z,11.98
2023-05-14T03:36:45.717Z,10.18
2023-05-14T03:37:17.071Z,9.52
2023-05-14T03:37:48.428Z,12.05
2023-05-14T03:38:19.774Z,9.18
2023-05-14T03:38:51.113Z,9.88
2023-05-14T03:39:22.487Z,10.55
2023-05-14T03:39:53.851Z,10.52
2023-05-14T03:40:25.754Z,8.85
2023-05-14T03:40:57.474Z,8.82
2023-05-14T03:41:28.841Z,11.85
2023-05-14T03:42:00.198Z,10.68
2023-05-14T03:42:31.586Z,10.60
2023-05-14T03:43:02.973Z,13.18
2023-05-14T03:43:34.317Z,8.35
2023-05-14T03:44:05.686Z,9.63
2023-05-14T03:44:37.073Z,9.93
2023-05-14T03:45:08.873Z,9.88
2023-05-14T03:45:40.337Z,8.50
2023-05-14T03:46:11.697Z,9.60
2023-05-14T03:46:43.043Z,9.73
2023-05-14T03:47:14.393Z,9.70
2023-05-14T03:47:45.851Z,9.50
2023-05-14T03:48:17.452Z,10.80
2023-05-14T03:48:48.978Z,7.45
2023-05-14T03:49:20.387Z,10.38
2023-05-14T03:49:51.708Z,9.90
2023-05-14T03:50:23.249Z,11.90
2023-05-14T03:50:54.766Z,9.18
2023-05-14T03:51:26.139Z,10.77
2023-05-14T03:51:57.506Z,10.38
2023-05-14T03:52:28.797Z,10.40
2023-05-14T03:53:00.193Z,9.20
2023-05-14T03:53:31.536Z,8.43
2023-05-14T03:54:03.410Z,9.00
2023-05-14T03:54:34.771Z,11.60
2023-05-14T03:55:06.394Z,8.93
2023-05-14T03:55:37.714Z,9.35
2023-05-14T03:56:09.055Z,8.82
2023-05-14T03:56:40.421Z,9.55
2023-05-14T03:57:11.792Z,8.90
2023-05-14T03:57:43.116Z,11.40
2023-05-14T03:58:14.636Z,11.73
2023-05-14T03:58:46.058Z,12.60
2023-05-14T03:59:17.440Z,6.85
2023-05-14T03:59:48.801Z,10.02
2023-05-14T04:00:20.197Z,8.90
2023-05-14T04:00:51.599Z,10.13
2023-05-14T04:01:22.951Z,7.25
2023-05-14T04:01:54.304Z,8.00
2023-05-14T04:02:25.680Z,8.02
2023-05-14T04:02:57.147Z,11.13
2023-05-14T04:03:28.720Z,8.60
2023-05-14T04:04:00.327Z,9.98
2023-05-14T04:04:31.836Z,8.48
2023-05-14T04:05:03.283Z,7.03
2023-05-14T04:05:35.069Z,7.68
2023-05-14T04:06:06.489Z,7.68
2023-05-14T04:06:37.860Z,6.43
2023-05-14T04:07:09.263Z,13.48
2023-05-14T04:07:40.605Z,7.63
2023-05-14T04:08:11.923Z,7.05
2023-05-14T04:08:43.278Z,8.82
2023-05-14T04:09:14.660Z,8.75
2023-05-14T04:09:46.003Z,8.80
2023-05-14T04:10:17.403Z,7.90
2023-05-14T04:10:49.509Z,6.93
2023-05-14T04:11:20.873Z,7.32
2023-05-14T04:11:52.216Z,12.63
2023-05-14T04:12:23.611Z,9.85
2023-05-14T04:12:54.927Z,6.73
2023-05-14T04:13:26.314Z,9.13
2023-05-14T04:13:57.672Z,8.30
2023-05-14T04:14:29.014Z,9.80
2023-05-14T04:15:01.238Z,6.68
2023-05-14T04:15:32.594Z,7.13
2023-05-14T04:16:04.095Z,9.00
2023-05-14T04:16:35.577Z,7.43
2023-05-14T04:17:06.948Z,5.50
2023-05-14T04:17:38.348Z,8.75
2023-05-14T04:18:09.748Z,9.75
2023-05-14T04:18:41.180Z,7.20
2023-05-14T04:19:12.656Z,8.02
2023-05-14T04:19:44.108Z,7.40
2023-05-14T04:20:15.469Z,6.18
2023-05-14T04:20:46.821Z,7.40
2023-05-14T04:21:18.150Z,7.77
2023-05-14T04:21:49.514Z,4.78
2023-05-14T04:22:20.956Z,6.28
2023-05-14T04:22:52.708Z,5.40
2023-05-14T04:23:24.082Z,5.32
2023-05-14T04:23:55.444Z,6.28
2023-05-14T04:24:26.836Z,8.20
2023-05-14T04:24:58.175Z,6.03
2023-05-14T04:25:29.558Z,6.10
2023-05-14T04:26:00.921Z,8.32
2023-05-14T04:26:32.325Z,5.47
2023-05-14T04:27:03.944Z,5.28
2023-05-14T04:27:35.332Z,5.35
2023-05-14T04:28:06.718Z,9.43
2023-05-14T04:28:38.090Z,6.47
2023-05-14T04:29:09.508Z,8.38
2023-05-14T04:29:40.850Z,5.03
2023-05-14T04:30:12.478Z,5.75
2023-05-14T04:30:43.857Z,6.90
2023-05-14T04:31:15.740Z,6.35
2023-05-14T04:31:47.168Z,8.15
2023-05-14T04:32:18.564Z,5.53
2023-05-14T04:32:49.978Z,7.63
2023-05-14T04:33:21.416Z,4.97
2023-05-14T04:33:52.744Z,6.32
2023-05-14T04:34:24.090Z,6.38
2023-05-14T04:34:55.459Z,5.97
2023-05-14T04:35:26.822Z,5.78
2023-05-14T04:35:58.174Z,5.75
2023-05-14T04:36:29.553Z,5.82
2023-05-14T04:37:00.929Z,4.07
2023-05-14T04:37:32.304Z,4.85
2023-05-14T04:38:03.643Z,4.20
2023-05-14T04:38:35.013Z,2.80
2023-05-14T04:39:06.499Z,4.82
2023-05-14T04:39:37.882Z,4.72
2023-05-14T04:40:09.836Z,5.50
2023-05-14T04:40:41.212Z,6.47
2023-05-14T04:41:12.568Z,4.45
2023-05-14T04:41:43.916Z,4.97
2023-05-14T04:42:15.239Z,4.00
2023-05-14T04:42:46.581Z,2.83
2023-05-14T04:43:17.966Z,5.18
2023-05-14T04:43:49.940Z,5.57
2023-05-14T04:44:21.327Z,6.10
2023-05-14T04:44:52.683Z,4.25
2023-05-14T04:45:24.050Z,4.70
2023-05-14T04:45:55.437Z,3.75
2023-05-14T04:46:26.877Z,2.75
2023-05-14T04:46:58.239Z,3.03
2023-05-14T04:47:29.654Z,3.33
2023-05-14T04:48:01.177Z,6.53
2023-05-14T04:48:32.801Z,6.03
2023-05-14T04:49:04.219Z,4.22
2023-05-14T04:49:35.586Z,4.43
2023-05-14T04:50:07.310Z,4.28
2023-05-14T04:50:38.644Z,4.45
2023-05-14T04:51:10.040Z,4.35
2023-05-14T04:51:41.408Z,4.10
2023-05-14T04:52:12.737Z,5.05
2023-05-14T04:52:44.118Z,4.32
2023-05-14T04:53:15.480Z,3.75
2023-05-14T04:53:46.826Z,4.32
2023-05-14T04:54:18.469Z,4.22
2023-05-14T04:54:50.102Z,4.60
2023-05-14T04:55:21.802Z,5.45
2023-05-14T04:55:53.159Z,3.13
2023-05-14T04:56:25.226Z,4.97
2023-05-14T04:56:56.580Z,4.15
2023-05-14T04:57:27.927Z,6.60
2023-05-14T04:57:59.269Z,3.70
2023-05-14T04:58:32.124Z,4.50
2023-05-14T04:59:05.152Z,4.13
2023-05-14T04:59:36.680Z,5.35
2023-05-14T05:00:08.286Z,5.05
2023-05-14T05:00:39.598Z,3.53
2023-05-14T05:01:11.064Z,4.63
2023-05-14T05:01:42.618Z,4.03
2023-05-14T05:02:14.050Z,5.03
2023-05-14T05:02:45.424Z,4.20
2023-05-14T05:03:16.956Z,5.63
2023-05-14T05:03:48.444Z,3.53
2023-05-14T05:04:19.869Z,3.92
2023-05-14T05:04:51.330Z,5.28
2023-05-14T05:05:22.802Z,3.65
2023-05-14T05:05:54.162Z,3.33
2023-05-14T05:06:25.517Z,5.60
2023-05-14T05:06:56.893Z,4.97
2023-05-14T05:07:28.229Z,5.00
2023-05-14T05:07:59.583Z,5.03
2023-05-14T05:08:30.942Z,5.10
2023-05-14T05:09:02.413Z,4.80
2023-05-14T05:09:33.809Z,3.35
2023-05-14T05:10:05.509Z,4.07
2023-05-14T05:10:36.852Z,4.88
2023-05-14T05:11:08.216Z,3.55
2023-05-14T05:11:39.594Z,3.85
2023-05-14T05:12:10.949Z,3.58
2023-05-14T05:12:42.277Z,4.20
2023-05-14T05:13:13.705Z,7.60
2023-05-14T05:13:45.014Z,3.90
2023-05-14T05:14:16.419Z,5.55
2023-05-14T05:14:47.784Z,2.92
2023-05-14T05:15:19.194Z,4.25
2023-05-14T05:15:50.608Z,5.60
2023-05-14T05:16:22.035Z,4.35
2023-05-14T05:16:53.469Z,4.43
2023-05-14T05:17:25.036Z,5.22
2023-05-14T05:17:56.528Z,4.13
2023-05-14T05:18:28.020Z,3.75
2023-05-14T05:18:59.471Z,4.95
2023-05-14T05:19:42.313Z,3.38
2023-05-14T05:20:15.338Z,3.20
2023-05-14T05:20:46.742Z,6.43
2023-05-14T05:21:18.176Z,4.50
2023-05-14T05:21:49.564Z,4.95
2023-05-14T05:22:20.988Z,4.57
2023-05-14T05:22:52.333Z,3.25
2023-05-14T05:23:23.709Z,2.83
2023-05-14T05:23:55.109Z,3.97
2023-05-14T05:24:26.457Z,5.43
2023-05-14T05:24:57.810Z,4.05
2023-05-14T05:25:29.167Z,5.05
2023-05-14T05:26:00.533Z,3.53
2023-05-14T05:26:31.907Z,4.18
2023-05-14T05:27:03.327Z,3.67
2023-05-14T05:27:34.698Z,4.57
2023-05-14T05:28:06.062Z,4.47
2023-05-14T05:28:37.449Z,6.57
2023-05-14T05:29:08.791Z,4.35
2023-05-14T05:29:40.132Z,3.63
2023-05-14T05:30:11.728Z,4.40
2023-05-14T05:30:43.146Z,6.45
2023-05-14T05:31:14.718Z,4.40
2023-05-14T05:31:46.164Z,5.25
2023-05-14T05:32:17.561Z,3.50
2023-05-14T05:32:48.959Z,4.75
2023-05-14T05:33:20.354Z,5.65
2023-05-14T05:33:51.700Z,2.70
2023-05-14T05:34:23.051Z,3.28
2023-05-14T05:34:54.414Z,3.60
2023-05-14T05:35:25.811Z,5.83
2023-05-14T05:35:57.166Z,5.20
2023-05-14T05:36:28.541Z,3.83
2023-05-14T05:36:59.888Z,4.10
2023-05-14T05:37:31.248Z,4.28
2023-05-14T05:38:02.618Z,3.75
2023-05-14T05:38:33.964Z,4.73
2023-05-14T05:39:05.299Z,3.33
2023-05-14T05:39:36.657Z,2.88
2023-05-14T05:40:08.363Z,2.97
2023-05-14T05:40:39.720Z,3.45
2023-05-14T05:41:11.093Z,3.67
2023-05-14T05:41:42.599Z,5.30
2023-05-14T05:42:14.120Z,4.35
2023-05-14T05:42:45.461Z,2.45
2023-05-14T05:43:16.832Z,2.85
2023-05-14T05:43:48.203Z,3.05
2023-05-14T05:44:19.561Z,3.70
2023-05-14T05:44:50.900Z,4.07
2023-05-14T05:45:22.238Z,4.53
2023-05-14T05:45:53.582Z,4.50
2023-05-14T05:46:24.955Z,3.45
2023-05-14T05:46:56.419Z,5.60
2023-05-14T05:47:27.942Z,4.30
2023-05-14T05:47:59.376Z,5.65
2023-05-14T05:48:30.767Z,4.73
2023-05-14T05:49:02.098Z,4.55
2023-05-14T05:49:33.433Z,4.10
2023-05-14T05:50:05.011Z,5.38
2023-05-14T05:50:36.371Z,3.72
2023-05-14T05:51:07.765Z,4.43
2023-05-14T05:51:39.114Z,5.20
2023-05-14T05:52:10.483Z,4.28
2023-05-14T05:52:41.904Z,5.47
2023-05-14T05:53:13.261Z,5.05
2023-05-14T05:53:44.601Z,4.10
2023-05-14T05:54:15.929Z,4.25
2023-05-14T05:54:47.250Z,4.07
2023-05-14T05:55:18.611Z,3.58
2023-05-14T05:55:49.958Z,3.92
2023-05-14T05:56:21.388Z,6.18
2023-05-14T05:56:52.770Z,4.50
2023-05-14T05:57:26.300Z,6.13
2023-05-14T05:57:57.798Z,5.38
2023-05-14T05:58:29.274Z,3.47
2023-05-14T05:59:00.624Z,3.28
2023-05-14T05:59:31.962Z,4.72
2023-05-14T06:00:03.419Z,3.08
2023-05-14T06:00:34.800Z,4.53
2023-05-14T06:01:06.209Z,3.47
2023-05-14T06:01:37.697Z,5.28
2023-05-14T06:02:09.141Z,3.90
2023-05-14T06:02:41.501Z,4.53
2023-05-14T06:03:13.343Z,2.80
2023-05-14T06:03:46.453Z,2.83
2023-05-14T06:04:19.687Z,3.40
2023-05-14T06:04:51.132Z,4.68
2023-05-14T06:05:22.575Z,3.80
2023-05-14T06:05:54.006Z,4.95
2023-05-14T06:06:25.438Z,4.18
2023-05-14T06:06:57.488Z,3.40
2023-05-14T06:07:28.887Z,4.05
2023-05-14T06:08:00.280Z,4.57
2023-05-14T06:08:31.694Z,3.65
2023-05-14T06:09:03.026Z,4.60
2023-05-14T06:09:34.351Z,6.47
2023-05-14T06:10:06.019Z,4.47
2023-05-14T06:10:37.413Z,4.40
2023-05-14T06:11:08.790Z,5.00
2023-05-14T06:11:40.119Z,4.70
2023-05-14T06:12:11.511Z,3.20
2023-05-14T06:12:42.902Z,5.20
2023-05-14T06:13:14.310Z,2.92
2023-05-14T06:13:45.699Z,5.38
2023-05-14T06:14:17.086Z,5.18
2023-05-14T06:14:48.435Z,6.03
2023-05-14T06:15:19.962Z,3.70
2023-05-14T06:15:51.320Z,4.80
2023-05-14T06:16:22.736Z,3.55
2023-05-14T06:16:54.259Z,3.35
2023-05-14T06:17:25.723Z,3.38
2023-05-14T06:17:57.253Z,4.25
2023-05-14T06:18:28.727Z,2.90
2023-05-14T06:19:00.205Z,3.22
2023-05-14T06:19:31.601Z,3.95
2023-05-14T06:20:03.000Z,4.97
2023-05-14T06:20:34.459Z,5.32
2023-05-14T06:21:05.833Z,3.25
2023-05-14T06:21:37.206Z,2.88
2023-05-14T06:22:08.553Z,3.42
2023-05-14T06:22:39.924Z,5.18
2023-05-14T06:23:11.255Z,3.38
2023-05-14T06:23:42.647Z,3.30
2023-05-14T06:24:14.003Z,2.92
2023-05-14T06:24:45.442Z,3.00
2023-05-14T06:25:16.784Z,2.90
2023-05-14T06:25:50.691Z,4.60
2023-05-14T06:26:22.208Z,4.65
2023-05-14T06:26:53.555Z,4.07
2023-05-14T06:27:24.974Z,3.92
2023-05-14T06:27:56.312Z,4.25
2023-05-14T06:28:27.669Z,3.53
2023-05-14T06:28:59.061Z,4.22
2023-05-14T06:29:30.397Z,4.60
2023-05-14T06:30:01.779Z,5.47
2023-05-14T06:30:33.125Z,3.53
2023-05-14T06:31:04.500Z,3.60
2023-05-14T06:31:35.895Z,2.80
2023-05-14T06:32:07.706Z,4.47
2023-05-14T06:32:39.194Z,6.55
2023-05-14T06:33:10.709Z,7.07
2023-05-14T06:33:42.100Z,3.58
2023-05-14T06:34:13.486Z,3.83
2023-05-14T06:34:44.856Z,3.83
2023-05-14T06:35:16.210Z,3.42
2023-05-14T06:35:47.584Z,6.25
2023-05-14T06:36:18.958Z,3.08
2023-05-14T06:36:50.314Z,3.47
2023-05-14T06:37:21.688Z,2.90
2023-05-14T06:37:53.045Z,4.15
2023-05-14T06:38:24.435Z,5.60
2023-05-14T06:38:55.796Z,3.03
2023-05-14T06:39:27.176Z,5.57
2023-05-14T06:39:58.527Z,4.60
2023-05-14T06:40:29.883Z,3.20
2023-05-14T06:41:01.241Z,2.67
2023-05-14T06:41:32.646Z,3.28
2023-05-14T06:42:04.204Z,4.50
2023-05-14T06:42:35.521Z,6.50
2023-05-14T06:43:06.873Z,6.00
2023-05-14T06:43:38.214Z,3.53
2023-05-14T06:44:09.581Z,6.88
2023-05-14T06:44:40.943Z,11.07
2023-05-14T06:45:12.299Z,4.43
2023-05-14T06:45:43.654Z,3.80
2023-05-14T06:46:15.033Z,3.05
2023-05-14T06:46:46.398Z,3.60
2023-05-14T06:47:17.837Z,3.90
2023-05-14T06:47:49.237Z,4.75
2023-05-14T06:48:20.722Z,4.00
2023-05-14T06:48:52.217Z,3.85
2023-05-14T06:49:23.593Z,3.00
2023-05-14T06:49:54.969Z,5.03
2023-05-14T06:50:26.354Z,4.25
2023-05-14T06:50:57.683Z,3.65
2023-05-14T06:51:29.026Z,5.45
2023-05-14T06:52:02.639Z,4.88
2023-05-14T06:52:34.003Z,5.88
2023-05-14T06:53:05.339Z,4.70
2023-05-14T06:53:36.706Z,4.10
2023-05-14T06:54:08.105Z,5.38
2023-05-14T06:54:39.459Z,4.68
2023-05-14T06:55:10.913Z,3.67
2023-05-14T06:55:42.279Z,4.30
2023-05-14T06:56:13.650Z,5.47
2023-05-14T06:56:45.005Z,6.75
2023-05-14T06:57:16.336Z,4.90
2023-05-14T06:57:47.667Z,6.78
2023-05-14T06:58:19.017Z,3.88
2023-05-14T06:58:50.392Z,3.97
2023-05-14T06:59:21.754Z,2.67
2023-05-14T06:59:53.094Z,5.03